Current Conditions
Overcast
Conditions



Pressure
1023.42 (mb) - 30.22 (inHG)
Visibility

10.0 (mimiles) - 16.1 (km)
   Temperature
63  °F
17°C
50  °F
Dewpoint
64  %
 Humidity
   Wind Speed
5  mph
4  kts
8  km/h
2.2  m/s
   Wind Direction
 140°
South East
   Airport Data
KBHC
Location Baxley Municipal 5 mi (8.05 km)
Metar :KBHC 081955Z AUTO 14004KT 10SM OVC050 17/10 A3022 RMK AO2
Sun 8th December 14:55 pm
   Raw Metar Info
Raw METAR is the most common format in the world for the transmission of observational weather data. It is highly standardized through the International Civil Aviation Organization (ICAO), which allows it to be understood throughout most of the world.
   API Info
Data Provided by
https://www.checkwx.com/weather/KBHC
   © Info
CSS/SVG/PHP scripts were developed by weather34.com for use in the weather34 template © 2015-2019

Guide Info provided by Metar-Wikipedia